^^
Station Historical Data
Daily Summary for January 04, 2018 Units:  Both    English   Metric
« Previous Day
Next Day »
Daily Weekly Monthly Yearly Custom
  High: Low: Average:
Temperature: 94.6 °F /  34.8 °C 69.3 °F /  20.7 °C 79.6 °F /  26.4 °C
Dew Point: 52.9 °F /  11.6 °C 12.7 °F /  -10.7 °C 42.8 °F /  6 °C
Humidity: 47% 8% 29%
Wind Speed: 16.1mph /  25.9km/h - 3.4mph /  5.5km/h
Wind Gust: 21.0mph /  33.8km/h - -
Wind- - ESE
Pressure: 30.24 in /  1023.9 hPa 29.65 in /  1003.9 hPa -
Precipitation: 0.00 in /  0 mm    
Historical Graphs
 
 
Tabular Data for January 04, 2018
Time Temperature Dew Point Pressure Wind Wind Speed Wind Gust Humidity Rainfall Rate (Hourly) solar Conditions
00:04 79.2 °F /  26.2 °C 12.7 °F /  -10.7 °C 30.20in /  1022.6hPa SSE 6.0mph /  9.7km/h 10.0mph /  16.1km/h 8% 0.00in /  0mm 0.0 W/m2
00:16 79.0 °F /  26.1 °C 15.3 °F /  -9.3 °C 30.20in /  1022.6hPa ESE 4.0mph /  6.4km/h 6.0mph /  9.7km/h 9% 0.00in /  0mm 0.0 W/m2
00:22 78.6 °F /  25.9 °C 15.1 °F /  -9.4 °C 30.20in /  1022.6hPa SE 4.0mph /  6.4km/h 9.0mph /  14.5km/h 9% 0.00in /  0mm 0.0 W/m2
00:27 78.6 °F /  25.9 °C 15.1 °F /  -9.4 °C 30.20in /  1022.6hPa SE 4.9mph /  7.9km/h 9.0mph /  14.5km/h 9% 0.00in /  0mm 0.0 W/m2
00:32 78.4 °F /  25.8 °C 14.9 °F /  -9.5 °C 30.20in /  1022.6hPa ESE 2.9mph /  4.7km/h 9.0mph /  14.5km/h 9% 0.00in /  0mm 0.0 W/m2
00:36 78.4 °F /  25.8 °C 14.9 °F /  -9.5 °C 30.20in /  1022.6hPa SE 2.9mph /  4.7km/h 8.0mph /  12.9km/h 9% 0.00in /  0mm 0.0 W/m2
00:42 78.4 °F /  25.8 °C 14.9 °F /  -9.5 °C 30.19in /  1022.2hPa ESE 2.9mph /  4.7km/h 8.0mph /  12.9km/h 9% 0.00in /  0mm 0.0 W/m2
00:47 78.4 °F /  25.8 °C 14.9 °F /  -9.5 °C 30.19in /  1022.2hPa SE 2.0mph /  3.2km/h 8.0mph /  12.9km/h 9% 0.00in /  0mm 0.0 W/m2
00:50 78.4 °F /  25.8 °C 14.9 °F /  -9.5 °C 30.19in /  1022.2hPa SSE 2.9mph /  4.7km/h 9.0mph /  14.5km/h 9% 0.00in /  0mm 0.0 W/m2
00:55 78.3 °F /  25.7 °C 14.7 °F /  -9.6 °C 30.19in /  1022.2hPa SE 6.0mph /  9.7km/h 11.0mph /  17.7km/h 9% 0.00in /  0mm 0.0 W/m2
01:01 78.3 °F /  25.7 °C 14.7 °F /  -9.6 °C 30.19in /  1022.2hPa ESE 4.0mph /  6.4km/h 9.0mph /  14.5km/h 9% 0.00in /  0mm 0.0 W/m2
01:06 78.3 °F /  25.7 °C 14.7 °F /  -9.6 °C 30.19in /  1022.2hPa ESE 6.0mph /  9.7km/h 8.0mph /  12.9km/h 9% 0.00in /  0mm 0.0 W/m2
01:11 78.3 °F /  25.7 °C 17.2 °F /  -8.2 °C 30.19in /  1022.2hPa SSE 2.9mph /  4.7km/h 10.0mph /  16.1km/h 10% 0.00in /  0mm 0.0 W/m2
01:16 78.3 °F /  25.7 °C 17.2 °F /  -8.2 °C 30.19in /  1022.2hPa ESE 10.1mph /  16.3km/h 12.0mph /  19.3km/h 10% 0.00in /  0mm 0.0 W/m2
01:18 78.3 °F /  25.7 °C 17.2 °F /  -8.2 °C 30.19in /  1022.2hPa ESE 4.0mph /  6.4km/h 11.0mph /  17.7km/h 10% 0.00in /  0mm 0.0 W/m2
01:23 78.3 °F /  25.7 °C 17.2 °F /  -8.2 °C 30.19in /  1022.2hPa ESE 4.0mph /  6.4km/h 8.0mph /  12.9km/h 10% 0.00in /  0mm 0.0 W/m2
01:28 78.3 °F /  25.7 °C 17.2 °F /  -8.2 °C 30.19in /  1022.2hPa SE 8.1mph /  13km/h 10.0mph /  16.1km/h 10% 0.00in /  0mm 0.0 W/m2
01:34 78.3 °F /  25.7 °C 17.2 °F /  -8.2 °C 30.19in /  1022.2hPa SE 2.9mph /  4.7km/h 9.0mph /  14.5km/h 10% 0.00in /  0mm 0.0 W/m2
01:49 77.7 °F /  25.4 °C 19.0 °F /  -7.2 °C 30.18in /  1021.9hPa SE 2.9mph /  4.7km/h 8.0mph /  12.9km/h 11% 0.00in /  0mm 0.0 W/m2
01:50 77.7 °F /  25.4 °C 19.0 °F /  -7.2 °C 30.18in /  1021.9hPa ESE 0.9mph /  1.4km/h 7.0mph /  11.3km/h 11% 0.00in /  0mm 0.0 W/m2
01:57 77.5 °F /  25.3 °C 18.9 °F /  -7.3 °C 30.18in /  1021.9hPa East 4.0mph /  6.4km/h 6.0mph /  9.7km/h 11% 0.00in /  0mm 0.0 W/m2
02:07 77.4 °F /  25.2 °C 20.8 °F /  -6.2 °C 30.18in /  1021.9hPa ENE 4.9mph /  7.9km/h 7.0mph /  11.3km/h 12% 0.00in /  0mm 0.0 W/m2
02:08 77.4 °F /  25.2 °C 20.8 °F /  -6.2 °C 30.18in /  1021.9hPa SSE 2.9mph /  4.7km/h 7.0mph /  11.3km/h 12% 0.00in /  0mm 0.0 W/m2
02:14 77.2 °F /  25.1 °C 20.7 °F /  -6.3 °C 30.18in /  1021.9hPa SSE 2.0mph /  3.2km/h 3.0mph /  4.8km/h 12% 0.00in /  0mm 0.0 W/m2
02:27 76.6 °F /  24.8 °C 23.9 °F /  -4.5 °C 30.18in /  1021.9hPa ESE 0.9mph /  1.4km/h 2.0mph /  3.2km/h 14% 0.00in /  0mm 0.0 W/m2
02:42 75.9 °F /  24.4 °C 25.0 °F /  -3.9 °C 30.17in /  1021.6hPa Calm   2.0mph /  3.2km/h 15% 0.00in /  0mm 0.0 W/m2
02:48 75.7 °F /  24.3 °C 24.8 °F /  -4 °C 30.17in /  1021.6hPa Calm   4.0mph /  6.4km/h 15% 0.00in /  0mm 0.0 W/m2
02:59 74.8 °F /  23.8 °C 25.7 °F /  -3.5 °C 30.17in /  1021.6hPa Calm   4.0mph /  6.4km/h 16% 0.00in /  0mm 0.0 W/m2
03:04 74.5 °F /  23.6 °C 25.3 °F /  -3.7 °C 30.17in /  1021.6hPa East 2.0mph /  3.2km/h 5.0mph /  8km/h 16% 0.00in /  0mm 0.0 W/m2
03:10 74.3 °F /  23.5 °C 26.6 °F /  -3 °C 30.17in /  1021.6hPa ESE 2.9mph /  4.7km/h 5.0mph /  8km/h 17% 0.00in /  0mm 0.0 W/m2
03:15 74.1 °F /  23.4 °C 26.6 °F /  -3 °C 30.17in /  1021.6hPa East 2.0mph /  3.2km/h 6.0mph /  9.7km/h 17% 0.00in /  0mm 0.0 W/m2
03:16 74.1 °F /  23.4 °C 26.6 °F /  -3 °C 30.17in /  1021.6hPa East 0.9mph /  1.4km/h 5.0mph /  8km/h 17% 0.00in /  0mm 0.0 W/m2
03:26 73.9 °F /  23.3 °C 27.7 °F /  -2.4 °C 30.17in /  1021.6hPa ENE 2.0mph /  3.2km/h 8.0mph /  12.9km/h 18% 0.00in /  0mm 0.0 W/m2
03:31 73.9 °F /  23.3 °C 27.7 °F /  -2.4 °C 30.16in /  1021.2hPa NNE 0.9mph /  1.4km/h 7.0mph /  11.3km/h 18% 0.00in /  0mm 0.0 W/m2
03:36 73.8 °F /  23.2 °C 27.7 °F /  -2.4 °C 30.16in /  1021.2hPa ENE 4.0mph /  6.4km/h 4.0mph /  6.4km/h 18% 0.00in /  0mm 0.0 W/m2
03:38 73.8 °F /  23.2 °C 28.9 °F /  -1.7 °C 30.16in /  1021.2hPa East 2.9mph /  4.7km/h 6.0mph /  9.7km/h 19% 0.00in /  0mm 0.0 W/m2
03:43 73.6 °F /  23.1 °C 28.8 °F /  -1.8 °C 30.16in /  1021.2hPa ESE 0.9mph /  1.4km/h 5.0mph /  8km/h 19% 0.00in /  0mm 0.0 W/m2
03:51 73.6 °F /  23.1 °C 28.8 °F /  -1.8 °C 30.16in /  1021.2hPa Calm   4.0mph /  6.4km/h 19% 0.00in /  0mm 0.0 W/m2
03:56 73.6 °F /  23.1 °C 28.8 °F /  -1.8 °C 30.16in /  1021.2hPa Calm   10.0mph /  16.1km/h 19% 0.00in /  0mm 0.0 W/m2
04:01 73.6 °F /  23.1 °C 28.8 °F /  -1.8 °C 30.16in /  1021.2hPa NNE 4.0mph /  6.4km/h 9.0mph /  14.5km/h 19% 0.00in /  0mm 0.0 W/m2
04:11 73.8 °F /  23.2 °C 28.9 °F /  -1.7 °C 30.16in /  1021.2hPa East 4.0mph /  6.4km/h 6.0mph /  9.7km/h 19% 0.00in /  0mm 0.0 W/m2
04:14 73.8 °F /  23.2 °C 30.2 °F /  -1 °C 30.16in /  1021.2hPa East 8.1mph /  13km/h 8.1mph /  13km/h 20% 0.00in /  0mm 0.0 W/m2
04:19 73.8 °F /  23.2 °C 30.2 °F /  -1 °C 30.16in /  1021.2hPa East 2.0mph /  3.2km/h 7.0mph /  11.3km/h 20% 0.00in /  0mm 0.0 W/m2
04:24 73.6 °F /  23.1 °C 30.0 °F /  -1.1 °C 30.16in /  1021.2hPa NE 2.0mph /  3.2km/h 14.0mph /  22.5km/h 20% 0.00in /  0mm 0.0 W/m2
04:29 73.6 °F /  23.1 °C 30.0 °F /  -1.1 °C 30.16in /  1021.2hPa ENE 4.9mph /  7.9km/h 11.0mph /  17.7km/h 20% 0.00in /  0mm 0.0 W/m2
04:30 73.6 °F /  23.1 °C 30.0 °F /  -1.1 °C 30.16in /  1021.2hPa Calm   9.0mph /  14.5km/h 20% 0.00in /  0mm 0.0 W/m2
04:36 73.6 °F /  23.1 °C 31.3 °F /  -0.4 °C 30.16in /  1021.2hPa SE 4.9mph /  7.9km/h 8.0mph /  12.9km/h 21% 0.00in /  0mm 0.0 W/m2
04:46 73.6 °F /  23.1 °C 32.4 °F /  0.2 °C 30.16in /  1021.2hPa ENE 2.9mph /  4.7km/h 11.0mph /  17.7km/h 22% 0.00in /  0mm 0.0 W/m2
04:51 73.4 °F /  23 °C 33.3 °F /  0.7 °C 30.17in /  1021.6hPa ENE 6.0mph /  9.7km/h 8.0mph /  12.9km/h 23% 0.00in /  0mm 0.0 W/m2
04:52 73.4 °F /  23 °C 33.3 °F /  0.7 °C 30.17in /  1021.6hPa ENE 4.9mph /  7.9km/h 7.0mph /  11.3km/h 23% 0.00in /  0mm 0.0 W/m2
04:56 73.4 °F /  23 °C 33.3 °F /  0.7 °C 30.16in /  1021.2hPa ESE 2.0mph /  3.2km/h 5.0mph /  8km/h 23% 0.00in /  0mm 0.0 W/m2
05:01 73.4 °F /  23 °C 34.3 °F /  1.3 °C 30.17in /  1021.6hPa ESE 2.0mph /  3.2km/h 15.0mph /  24.1km/h 24% 0.00in /  0mm 0.0 W/m2
05:02 73.2 °F /  22.9 °C 34.3 °F /  1.3 °C 30.17in /  1021.6hPa East 8.9mph /  14.3km/h 14.0mph /  22.5km/h 24% 0.00in /  0mm 0.0 W/m2
05:13 73.2 °F /  22.9 °C 36.3 °F /  2.4 °C 30.17in /  1021.6hPa SSW 2.0mph /  3.2km/h 15.0mph /  24.1km/h 26% 0.00in /  0mm 0.0 W/m2
05:18 73.0 °F /  22.8 °C 37.0 °F /  2.8 °C 30.17in /  1021.6hPa NE 6.9mph /  11.1km/h 8.0mph /  12.9km/h 27% 0.00in /  0mm 0.0 W/m2
05:28 72.7 °F /  22.6 °C 38.7 °F /  3.7 °C 30.17in /  1021.6hPa East 2.9mph /  4.7km/h 12.0mph /  19.3km/h 29% 0.00in /  0mm 0.0 W/m2
05:29 72.7 °F /  22.6 °C 38.7 °F /  3.7 °C 30.17in /  1021.6hPa NE 12.1mph /  19.5km/h 12.1mph /  19.5km/h 29% 0.00in /  0mm 0.0 W/m2
05:34 72.3 °F /  22.4 °C 39.2 °F /  4 °C 30.17in /  1021.6hPa SSE 2.9mph /  4.7km/h 11.0mph /  17.7km/h 30% 0.00in /  0mm 0.0 W/m2
05:39 72.1 °F /  22.3 °C 39.0 °F /  3.9 °C 30.17in /  1021.6hPa East 4.0mph /  6.4km/h 8.0mph /  12.9km/h 30% 0.00in /  0mm 0.0 W/m2
05:44 72.0 °F /  22.2 °C 39.7 °F /  4.3 °C 30.17in /  1021.6hPa ESE 4.9mph /  7.9km/h 6.0mph /  9.7km/h 31% 0.00in /  0mm 0.0 W/m2
05:50 71.6 °F /  22 °C 39.4 °F /  4.1 °C 30.17in /  1021.6hPa NE 2.0mph /  3.2km/h 11.0mph /  17.7km/h 31% 0.00in /  0mm 0.0 W/m2
05:55 71.4 °F /  21.9 °C 40.1 °F /  4.5 °C 30.18in /  1021.9hPa SE 4.0mph /  6.4km/h 14.0mph /  22.5km/h 32% 0.00in /  0mm 0.0 W/m2
05:57 71.4 °F /  21.9 °C 40.1 °F /  4.5 °C 30.17in /  1021.6hPa East 8.9mph /  14.3km/h 12.0mph /  19.3km/h 32% 0.00in /  0mm 0.0 W/m2
06:03 71.2 °F /  21.8 °C 39.9 °F /  4.4 °C 30.18in /  1021.9hPa East 0.9mph /  1.4km/h 12.0mph /  19.3km/h 32% 0.00in /  0mm 0.0 W/m2
06:08 71.1 °F /  21.7 °C 40.5 °F /  4.7 °C 30.18in /  1021.9hPa ENE 2.0mph /  3.2km/h 10.0mph /  16.1km/h 33% 0.00in /  0mm 0.0 W/m2
06:13 70.9 °F /  21.6 °C 41.2 °F /  5.1 °C 29.71in /  1006hPa SE 2.0mph /  3.2km/h 12.0mph /  19.3km/h 34% 0.00in /  0mm 0.0 W/m2
06:15 70.9 °F /  21.6 °C 41.2 °F /  5.1 °C 29.72in /  1006.3hPa ENE 2.0mph /  3.2km/h 16.0mph /  25.7km/h 34% 0.00in /  0mm 0.0 W/m2
06:17 70.7 °F /  21.5 °C 41.0 °F /  5 °C 30.19in /  1022.2hPa East 4.9mph /  7.9km/h 9.0mph /  14.5km/h 34% 0.00in /  0mm 5.0 W/m2
06:20 70.5 °F /  21.4 °C 40.8 °F /  4.9 °C 30.19in /  1022.2hPa ESE 0.9mph /  1.4km/h 4.0mph /  6.4km/h 34% 0.00in /  0mm 5.0 W/m2
06:22 70.5 °F /  21.4 °C 40.8 °F /  4.9 °C 30.19in /  1022.2hPa NE 2.0mph /  3.2km/h 9.0mph /  14.5km/h 34% 0.00in /  0mm 7.0 W/m2
06:23 70.5 °F /  21.4 °C 40.8 °F /  4.9 °C 30.19in /  1022.2hPa East 0.9mph /  1.4km/h 9.0mph /  14.5km/h 34% 0.00in /  0mm 5.0 W/m2
06:25 70.3 °F /  21.3 °C 41.4 °F /  5.2 °C 30.19in /  1022.2hPa ESE 2.0mph /  3.2km/h 10.0mph /  16.1km/h 35% 0.00in /  0mm 7.0 W/m2
06:26 70.3 °F /  21.3 °C 41.4 °F /  5.2 °C 30.19in /  1022.2hPa NE 4.0mph /  6.4km/h 10.0mph /  16.1km/h 35% 0.00in /  0mm 9.0 W/m2
06:31 70.2 °F /  21.2 °C 41.2 °F /  5.1 °C 30.19in /  1022.2hPa NE 2.9mph /  4.7km/h 11.0mph /  17.7km/h 35% 0.00in /  0mm 11.0 W/m2
06:32 70.0 °F /  21.1 °C 41.0 °F /  5 °C 30.19in /  1022.2hPa NNE 0.9mph /  1.4km/h 9.0mph /  14.5km/h 35% 0.00in /  0mm 11.0 W/m2
06:36 69.8 °F /  21 °C 41.7 °F /  5.4 °C 30.19in /  1022.2hPa SE 2.0mph /  3.2km/h 8.0mph /  12.9km/h 36% 0.00in /  0mm 12.0 W/m2
06:38 69.8 °F /  21 °C 41.7 °F /  5.4 °C 30.19in /  1022.2hPa ESE 4.0mph /  6.4km/h 11.0mph /  17.7km/h 36% 0.00in /  0mm 12.0 W/m2
06:48 69.4 °F /  20.8 °C 42.8 °F /  6 °C 30.20in /  1022.6hPa NNE 2.9mph /  4.7km/h 11.0mph /  17.7km/h 38% 0.00in /  0mm 16.0 W/m2
06:49 69.4 °F /  20.8 °C 42.8 °F /  6 °C 30.20in /  1022.6hPa SE 4.9mph /  7.9km/h 6.0mph /  9.7km/h 38% 0.00in /  0mm 16.0 W/m2
06:51 69.4 °F /  20.8 °C 42.8 °F /  6 °C 30.20in /  1022.6hPa East 4.9mph /  7.9km/h 12.0mph /  19.3km/h 38% 0.00in /  0mm 16.0 W/m2
06:57 69.4 °F /  20.8 °C 42.8 °F /  6 °C 30.20in /  1022.6hPa NE 4.9mph /  7.9km/h 8.0mph /  12.9km/h 38% 0.00in /  0mm 18.0 W/m2
07:02 69.3 °F /  20.7 °C 43.2 °F /  6.2 °C 30.21in /  1022.9hPa NNE 4.0mph /  6.4km/h 12.0mph /  19.3km/h 39% 0.00in /  0mm 19.0 W/m2
07:07 69.3 °F /  20.7 °C 43.9 °F /  6.6 °C 30.21in /  1022.9hPa NE 4.9mph /  7.9km/h 8.0mph /  12.9km/h 40% 0.00in /  0mm 19.0 W/m2
07:11 69.3 °F /  20.7 °C 43.9 °F /  6.6 °C 30.22in /  1023.2hPa North 2.0mph /  3.2km/h 11.0mph /  17.7km/h 40% 0.00in /  0mm 21.0 W/m2
07:16 69.3 °F /  20.7 °C 43.9 °F /  6.6 °C 30.22in /  1023.2hPa NE 0.9mph /  1.4km/h 9.0mph /  14.5km/h 40% 0.00in /  0mm 21.0 W/m2
07:21 69.4 °F /  20.8 °C 44.8 °F /  7.1 °C 30.22in /  1023.2hPa ENE 8.9mph /  14.3km/h 12.0mph /  19.3km/h 41% 0.00in /  0mm 23.0 W/m2
07:23 69.4 °F /  20.8 °C 44.8 °F /  7.1 °C 30.22in /  1023.2hPa ENE 2.9mph /  4.7km/h 12.0mph /  19.3km/h 41% 0.00in /  0mm 23.0 W/m2
07:28 69.4 °F /  20.8 °C 45.3 °F /  7.4 °C 30.23in /  1023.6hPa ENE 0.9mph /  1.4km/h 10.0mph /  16.1km/h 42% 0.00in /  0mm 25.0 W/m2
07:33 69.6 °F /  20.9 °C 45.5 °F /  7.5 °C 29.76in /  1007.7hPa ENE 8.1mph /  13km/h 11.0mph /  17.7km/h 42% 0.00in /  0mm 26.0 W/m2
07:39 69.6 °F /  20.9 °C 45.5 °F /  7.5 °C 30.23in /  1023.6hPa ENE 0.9mph /  1.4km/h 8.0mph /  12.9km/h 42% 0.00in /  0mm 26.0 W/m2
07:56 70.5 °F /  21.4 °C 46.9 °F /  8.3 °C 30.23in /  1023.6hPa NE 4.9mph /  7.9km/h 10.0mph /  16.1km/h 43% 0.00in /  0mm 371.0 W/m2
07:59 71.1 °F /  21.7 °C 46.8 °F /  8.2 °C 29.76in /  1007.7hPa Calm   9.0mph /  14.5km/h 42% 0.00in /  0mm 380.0 W/m2
08:01 71.2 °F /  21.8 °C 46.9 °F /  8.3 °C 30.23in /  1023.6hPa Calm   5.0mph /  8km/h 42% 0.00in /  0mm 390.0 W/m2
08:02 71.4 °F /  21.9 °C 47.1 °F /  8.4 °C 30.23in /  1023.6hPa East 4.0mph /  6.4km/h 5.0mph /  8km/h 42% 0.00in /  0mm 394.0 W/m2
08:07 72.0 °F /  22.2 °C 47.7 °F /  8.7 °C 30.23in /  1023.6hPa East 2.0mph /  3.2km/h 9.0mph /  14.5km/h 42% 0.00in /  0mm 413.0 W/m2
08:12 72.7 °F /  22.6 °C 48.2 °F /  9 °C 30.24in /  1023.9hPa ESE 4.0mph /  6.4km/h 7.0mph /  11.3km/h 42% 0.00in /  0mm 432.0 W/m2
08:17 73.2 °F /  22.9 °C 48.0 °F /  8.9 °C 30.24in /  1023.9hPa NE 2.0mph /  3.2km/h 8.0mph /  12.9km/h 41% 0.00in /  0mm 454.0 W/m2
08:22 73.9 °F /  23.3 °C 48.7 °F /  9.3 °C 30.24in /  1023.9hPa NE 4.0mph /  6.4km/h 8.0mph /  12.9km/h 41% 0.00in /  0mm 473.0 W/m2
08:28 74.5 °F /  23.6 °C 49.3 °F /  9.6 °C 30.24in /  1023.9hPa North 4.0mph /  6.4km/h 6.0mph /  9.7km/h 41% 0.00in /  0mm 494.0 W/m2
08:33 75.0 °F /  23.9 °C 49.6 °F /  9.8 °C 30.23in /  1023.6hPa Calm   7.0mph /  11.3km/h 41% 0.00in /  0mm 513.0 W/m2
08:36 75.6 °F /  24.2 °C 50.2 °F /  10.1 °C 30.23in /  1023.6hPa NE 0.9mph /  1.4km/h 4.0mph /  6.4km/h 41% 0.00in /  0mm 522.0 W/m2
08:37 75.6 °F /  24.2 °C 50.2 °F /  10.1 °C 30.23in /  1023.6hPa NE 2.0mph /  3.2km/h 4.0mph /  6.4km/h 41% 0.00in /  0mm 529.0 W/m2
08:38 75.7 °F /  24.3 °C 50.4 °F /  10.2 °C 30.23in /  1023.6hPa SE 4.9mph /  7.9km/h 9.0mph /  14.5km/h 41% 0.00in /  0mm 533.0 W/m2
08:43 76.6 °F /  24.8 °C 49.8 °F /  9.9 °C 30.23in /  1023.6hPa ENE 2.9mph /  4.7km/h 9.0mph /  14.5km/h 39% 0.00in /  0mm 552.0 W/m2
08:48 76.8 °F /  24.9 °C 50.7 °F /  10.4 °C 30.24in /  1023.9hPa ENE 6.0mph /  9.7km/h 7.0mph /  11.3km/h 40% 0.00in /  0mm 570.0 W/m2
08:52 77.2 °F /  25.1 °C 50.4 °F /  10.2 °C 30.23in /  1023.6hPa NE 2.9mph /  4.7km/h 8.0mph /  12.9km/h 39% 0.00in /  0mm 580.0 W/m2
08:53 77.4 °F /  25.2 °C 50.5 °F /  10.3 °C 30.23in /  1023.6hPa ESE 2.0mph /  3.2km/h 8.0mph /  12.9km/h 39% 0.00in /  0mm 585.0 W/m2
08:58 77.4 °F /  25.2 °C 50.5 °F /  10.3 °C 30.23in /  1023.6hPa ESE 6.9mph /  11.1km/h 9.0mph /  14.5km/h 39% 0.00in /  0mm 605.0 W/m2
09:06 78.1 °F /  25.6 °C 50.4 °F /  10.2 °C 30.23in /  1023.6hPa NNE 4.9mph /  7.9km/h 10.0mph /  16.1km/h 38% 0.00in /  0mm 631.0 W/m2
09:07 78.1 °F /  25.6 °C 50.4 °F /  10.2 °C 30.23in /  1023.6hPa NE 2.9mph /  4.7km/h 8.0mph /  12.9km/h 38% 0.00in /  0mm 635.0 W/m2
09:11 78.4 °F /  25.8 °C 50.0 °F /  10 °C 30.23in /  1023.6hPa NNW 4.9mph /  7.9km/h 10.0mph /  16.1km/h 37% 0.00in /  0mm 649.0 W/m2
09:16 79.0 °F /  26.1 °C 50.5 °F /  10.3 °C 30.23in /  1023.6hPa North 0.9mph /  1.4km/h 8.0mph /  12.9km/h 37% 0.00in /  0mm 666.0 W/m2
09:19 79.2 °F /  26.2 °C 50.7 °F /  10.4 °C 30.23in /  1023.6hPa East 6.0mph /  9.7km/h 6.0mph /  9.7km/h 37% 0.00in /  0mm 677.0 W/m2
09:25 79.9 °F /  26.6 °C 50.5 °F /  10.3 °C 30.23in /  1023.6hPa NNE 8.1mph /  13km/h 10.0mph /  16.1km/h 36% 0.00in /  0mm 694.0 W/m2
09:30 80.2 °F /  26.8 °C 50.2 °F /  10.1 °C 30.23in /  1023.6hPa ENE 6.0mph /  9.7km/h 12.0mph /  19.3km/h 35% 0.00in /  0mm 712.0 W/m2
09:35 80.2 °F /  26.8 °C 50.2 °F /  10.1 °C 30.23in /  1023.6hPa NNW 4.9mph /  7.9km/h 11.0mph /  17.7km/h 35% 0.00in /  0mm 728.0 W/m2
09:40 80.4 °F /  26.9 °C 50.2 °F /  10.1 °C 30.23in /  1023.6hPa NE 8.9mph /  14.3km/h 9.0mph /  14.5km/h 35% 0.00in /  0mm 742.0 W/m2
09:42 80.8 °F /  27.1 °C 50.5 °F /  10.3 °C 30.23in /  1023.6hPa NNW 8.9mph /  14.3km/h 16.0mph /  25.7km/h 35% 0.00in /  0mm 747.0 W/m2
09:43 80.8 °F /  27.1 °C 50.5 °F /  10.3 °C 30.23in /  1023.6hPa ENE 6.0mph /  9.7km/h 9.0mph /  14.5km/h 35% 0.00in /  0mm 751.0 W/m2
09:46 80.8 °F /  27.1 °C 50.5 °F /  10.3 °C 30.23in /  1023.6hPa ENE 6.9mph /  11.1km/h 10.0mph /  16.1km/h 35% 0.00in /  0mm 761.0 W/m2
09:52 81.3 °F /  27.4 °C 51.1 °F /  10.6 °C 30.22in /  1023.2hPa ENE 2.9mph /  4.7km/h 8.0mph /  12.9km/h 35% 0.00in /  0mm 779.0 W/m2
09:57 81.7 °F /  27.6 °C 50.5 °F /  10.3 °C 30.22in /  1023.2hPa NNE 6.0mph /  9.7km/h 12.0mph /  19.3km/h 34% 0.00in /  0mm 795.0 W/m2
10:02 81.9 °F /  27.7 °C 50.7 °F /  10.4 °C 30.22in /  1023.2hPa NNE 6.0mph /  9.7km/h 13.0mph /  20.9km/h 34% 0.00in /  0mm 810.0 W/m2
10:08 82.0 °F /  27.8 °C 50.9 °F /  10.5 °C 30.22in /  1023.2hPa ENE 4.9mph /  7.9km/h 10.0mph /  16.1km/h 34% 0.00in /  0mm 826.0 W/m2
10:13 82.6 °F /  28.1 °C 50.5 °F /  10.3 °C 29.75in /  1007.3hPa NNW 6.0mph /  9.7km/h 11.0mph /  17.7km/h 33% 0.00in /  0mm 847.0 W/m2
10:19 82.8 °F /  28.2 °C 49.8 °F /  9.9 °C 30.22in /  1023.2hPa ENE 11.0mph /  17.7km/h 11.0mph /  17.7km/h 32% 0.00in /  0mm 865.0 W/m2
10:23 82.9 °F /  28.3 °C 50.9 °F /  10.5 °C 30.22in /  1023.2hPa ESE 4.0mph /  6.4km/h 13.0mph /  20.9km/h 33% 0.00in /  0mm 874.0 W/m2
10:24 82.9 °F /  28.3 °C 50.9 °F /  10.5 °C 30.22in /  1023.2hPa ENE 12.1mph /  19.5km/h 12.1mph /  19.5km/h 33% 0.00in /  0mm 875.0 W/m2
10:30 83.1 °F /  28.4 °C 51.1 °F /  10.6 °C 30.22in /  1023.2hPa North 6.9mph /  11.1km/h 9.0mph /  14.5km/h 33% 0.00in /  0mm 896.0 W/m2
10:36 83.8 °F /  28.8 °C 50.0 °F /  10 °C 30.22in /  1023.2hPa NNW 4.9mph /  7.9km/h 8.0mph /  12.9km/h 31% 0.00in /  0mm 281.0 W/m2
10:38 83.8 °F /  28.8 °C 50.0 °F /  10 °C 30.22in /  1023.2hPa ENE 4.9mph /  7.9km/h 6.0mph /  9.7km/h 31% 0.00in /  0mm 972.0 W/m2
10:44 84.4 °F /  29.1 °C 51.3 °F /  10.7 °C 30.22in /  1023.2hPa East 4.0mph /  6.4km/h 6.0mph /  9.7km/h 32% 0.00in /  0mm 963.0 W/m2
10:51 84.4 °F /  29.1 °C 47.7 °F /  8.7 °C 30.21in /  1022.9hPa NE 4.9mph /  7.9km/h 6.0mph /  9.7km/h 28% 0.00in /  0mm 1009.0 W/m2
11:02 84.7 °F /  29.3 °C 48.9 °F /  9.4 °C 30.22in /  1023.2hPa North 4.9mph /  7.9km/h 11.0mph /  17.7km/h 29% 0.00in /  0mm 793.0 W/m2
11:07 85.3 °F /  29.6 °C 49.5 °F /  9.7 °C 30.22in /  1023.2hPa North 4.9mph /  7.9km/h 10.0mph /  16.1km/h 29% 0.00in /  0mm 206.0 W/m2
11:12 84.9 °F /  29.4 °C 48.2 °F /  9 °C 30.22in /  1023.2hPa North 11.0mph /  17.7km/h 11.0mph /  17.7km/h 28% 0.00in /  0mm 218.0 W/m2
11:13 84.7 °F /  29.3 °C 48.0 °F /  8.9 °C 30.22in /  1023.2hPa North 4.9mph /  7.9km/h 11.0mph /  17.7km/h 28% 0.00in /  0mm 186.0 W/m2
11:18 84.2 °F /  29 °C 48.6 °F /  9.2 °C 30.22in /  1023.2hPa NNE 4.0mph /  6.4km/h 11.0mph /  17.7km/h 29% 0.00in /  0mm 1130.0 W/m2
11:23 84.6 °F /  29.2 °C 49.6 °F /  9.8 °C 30.22in /  1023.2hPa ENE 4.9mph /  7.9km/h 8.0mph /  12.9km/h 30% 0.00in /  0mm 1123.0 W/m2
11:28 85.6 °F /  29.8 °C 48.7 °F /  9.3 °C 30.21in /  1022.9hPa NE 6.9mph /  11.1km/h 10.0mph /  16.1km/h 28% 0.00in /  0mm 1174.0 W/m2
11:33 86.2 °F /  30.1 °C 48.2 °F /  9 °C 30.21in /  1022.9hPa North 4.9mph /  7.9km/h 16.0mph /  25.7km/h 27% 0.00in /  0mm 1225.0 W/m2
11:40 86.2 °F /  30.1 °C 48.2 °F /  9 °C 30.21in /  1022.9hPa NNE 4.0mph /  6.4km/h 16.0mph /  25.7km/h 27% 0.00in /  0mm 1153.0 W/m2
11:42 85.8 °F /  29.9 °C 46.9 °F /  8.3 °C 30.21in /  1022.9hPa ENE 6.9mph /  11.1km/h 10.0mph /  16.1km/h 26% 0.00in /  0mm 244.0 W/m2
11:47 85.6 °F /  29.8 °C 47.8 °F /  8.8 °C 30.21in /  1022.9hPa North 11.0mph /  17.7km/h 17.0mph /  27.4km/h 27% 0.00in /  0mm 1232.0 W/m2
11:52 86.2 °F /  30.1 °C 48.2 °F /  9 °C 30.21in /  1022.9hPa NNE 0.9mph /  1.4km/h 11.0mph /  17.7km/h 27% 0.00in /  0mm 1195.0 W/m2
11:56 86.5 °F /  30.3 °C 47.7 °F /  8.7 °C 30.21in /  1022.9hPa North 4.0mph /  6.4km/h 7.0mph /  11.3km/h 26% 0.00in /  0mm 1179.0 W/m2
12:01 87.4 °F /  30.8 °C 47.3 °F /  8.5 °C 30.20in /  1022.6hPa ESE 4.0mph /  6.4km/h 4.0mph /  6.4km/h 25% 0.00in /  0mm 1190.0 W/m2
12:07 88.0 °F /  31.1 °C 45.5 °F /  7.5 °C 30.20in /  1022.6hPa NNW 2.0mph /  3.2km/h 5.0mph /  8km/h 23% 0.00in /  0mm 1209.0 W/m2
12:10 88.2 °F /  31.2 °C 45.7 °F /  7.6 °C 30.21in /  1022.9hPa NNE 4.0mph /  6.4km/h 16.0mph /  25.7km/h 23% 0.00in /  0mm 1234.0 W/m2
12:16 88.3 °F /  31.3 °C 45.9 °F /  7.7 °C 30.21in /  1022.9hPa North 8.9mph /  14.3km/h 15.0mph /  24.1km/h 23% 0.00in /  0mm 1206.0 W/m2
12:21 88.2 °F /  31.2 °C 45.7 °F /  7.6 °C 30.21in /  1022.9hPa East 8.1mph /  13km/h 12.0mph /  19.3km/h 23% 0.00in /  0mm 185.0 W/m2
12:26 87.3 °F /  30.7 °C 45.0 °F /  7.2 °C 30.21in /  1022.9hPa NNE 6.9mph /  11.1km/h 11.0mph /  17.7km/h 23% 0.00in /  0mm 306.0 W/m2
12:30 87.1 °F /  30.6 °C 44.8 °F /  7.1 °C 30.20in /  1022.6hPa NE 2.9mph /  4.7km/h 12.0mph /  19.3km/h 23% 0.00in /  0mm 1187.0 W/m2
12:31 87.3 °F /  30.7 °C 45.0 °F /  7.2 °C 30.20in /  1022.6hPa NNW 4.0mph /  6.4km/h 12.0mph /  19.3km/h 23% 0.00in /  0mm 1188.0 W/m2
12:38 87.4 °F /  30.8 °C 45.1 °F /  7.3 °C 30.20in /  1022.6hPa East 8.9mph /  14.3km/h 9.0mph /  14.5km/h 23% 0.00in /  0mm 162.0 W/m2
12:46 86.7 °F /  30.4 °C 44.4 °F /  6.9 °C 30.19in /  1022.2hPa East 6.0mph /  9.7km/h 17.0mph /  27.4km/h 23% 0.00in /  0mm 1252.0 W/m2
12:51 86.7 °F /  30.4 °C 44.4 °F /  6.9 °C 30.20in /  1022.6hPa NE 4.9mph /  7.9km/h 12.0mph /  19.3km/h 23% 0.00in /  0mm 192.0 W/m2
12:57 86.5 °F /  30.3 °C 43.2 °F /  6.2 °C 30.19in /  1022.2hPa Calm   4.0mph /  6.4km/h 22% 0.00in /  0mm 1121.0 W/m2
13:04 87.8 °F /  31 °C 44.2 °F /  6.8 °C 30.19in /  1022.2hPa North 4.9mph /  7.9km/h 10.0mph /  16.1km/h 22% 0.00in /  0mm 1185.0 W/m2
13:06 88.0 °F /  31.1 °C 43.2 °F /  6.2 °C 30.19in /  1022.2hPa NW 6.0mph /  9.7km/h 12.0mph /  19.3km/h 21% 0.00in /  0mm 1187.0 W/m2
13:12 88.9 °F /  31.6 °C 43.9 °F /  6.6 °C 30.19in /  1022.2hPa NE 6.9mph /  11.1km/h 8.0mph /  12.9km/h 21% 0.00in /  0mm 207.0 W/m2
13:18 89.2 °F /  31.8 °C 43.0 °F /  6.1 °C 30.19in /  1022.2hPa SE 2.9mph /  4.7km/h 8.0mph /  12.9km/h 20% 0.00in /  0mm 1185.0 W/m2
13:24 89.1 °F /  31.7 °C 42.8 °F /  6 °C 30.18in /  1021.9hPa NNW 0.9mph /  1.4km/h 7.0mph /  11.3km/h 20% 0.00in /  0mm 174.0 W/m2
13:26 89.1 °F /  31.7 °C 42.8 °F /  6 °C 30.18in /  1021.9hPa ESE 0.9mph /  1.4km/h 6.0mph /  9.7km/h 20% 0.00in /  0mm 174.0 W/m2
13:31 89.4 °F /  31.9 °C 41.7 °F /  5.4 °C 30.18in /  1021.9hPa ESE 4.9mph /  7.9km/h 7.0mph /  11.3km/h 19% 0.00in /  0mm 301.0 W/m2
13:36 89.4 °F /  31.9 °C 41.7 °F /  5.4 °C 30.18in /  1021.9hPa North 0.9mph /  1.4km/h 3.0mph /  4.8km/h 19% 0.00in /  0mm 237.0 W/m2
13:41 89.6 °F /  32 °C 43.2 °F /  6.2 °C 30.18in /  1021.9hPa NE 6.9mph /  11.1km/h 7.0mph /  11.3km/h 20% 0.00in /  0mm 346.0 W/m2
13:43 89.8 °F /  32.1 °C 42.1 °F /  5.6 °C 30.18in /  1021.9hPa Calm   11.0mph /  17.7km/h 19% 0.00in /  0mm 1137.0 W/m2
13:46 90.0 °F /  32.2 °C 42.3 °F /  5.7 °C 30.17in /  1021.6hPa ESE 6.9mph /  11.1km/h 8.0mph /  12.9km/h 19% 0.00in /  0mm 1125.0 W/m2
13:51 90.7 °F /  32.6 °C 41.4 °F /  5.2 °C 30.17in /  1021.6hPa SE 4.0mph /  6.4km/h 8.0mph /  12.9km/h 18% 0.00in /  0mm 1106.0 W/m2
13:52 90.7 °F /  32.6 °C 42.8 °F /  6 °C 30.17in /  1021.6hPa East 0.9mph /  1.4km/h 7.0mph /  11.3km/h 19% 0.00in /  0mm 1085.0 W/m2
13:53 90.7 °F /  32.6 °C 42.8 °F /  6 °C 30.17in /  1021.6hPa North 2.9mph /  4.7km/h 9.0mph /  14.5km/h 19% 0.00in /  0mm 1085.0 W/m2
13:59 91.0 °F /  32.8 °C 40.1 °F /  4.5 °C 30.17in /  1021.6hPa SE 2.0mph /  3.2km/h 12.0mph /  19.3km/h 17% 0.00in /  0mm 1079.0 W/m2
14:05 91.0 °F /  32.8 °C 38.7 °F /  3.7 °C 30.17in /  1021.6hPa ENE 2.0mph /  3.2km/h 10.0mph /  16.1km/h 16% 0.00in /  0mm 1083.0 W/m2
14:11 91.6 °F /  33.1 °C 39.0 °F /  3.9 °C 30.16in /  1021.2hPa NNE 2.0mph /  3.2km/h 5.0mph /  8km/h 16% 0.00in /  0mm 1085.0 W/m2
14:17 91.9 °F /  33.3 °C 37.8 °F /  3.2 °C 30.16in /  1021.2hPa Calm   5.0mph /  8km/h 15% 0.00in /  0mm 1074.0 W/m2
14:21 92.1 °F /  33.4 °C 37.8 °F /  3.2 °C 30.16in /  1021.2hPa Calm   5.0mph /  8km/h 15% 0.00in /  0mm 1081.0 W/m2
14:26 92.1 °F /  33.4 °C 39.6 °F /  4.2 °C 30.16in /  1021.2hPa SW 2.0mph /  3.2km/h 3.0mph /  4.8km/h 16% 0.00in /  0mm 1116.0 W/m2
14:31 92.1 °F /  33.4 °C 41.0 °F /  5 °C 30.15in /  1020.9hPa NNW 0.9mph /  1.4km/h 9.0mph /  14.5km/h 17% 0.00in /  0mm 1097.0 W/m2
14:36 92.7 °F /  33.7 °C 41.5 °F /  5.3 °C 30.16in /  1021.2hPa NNE 4.0mph /  6.4km/h 12.0mph /  19.3km/h 17% 0.00in /  0mm 1086.0 W/m2
14:45 92.8 °F /  33.8 °C 41.5 °F /  5.3 °C 30.15in /  1020.9hPa NW 4.9mph /  7.9km/h 9.0mph /  14.5km/h 17% 0.00in /  0mm 1028.0 W/m2
14:51 93.2 °F /  34 °C 41.9 °F /  5.5 °C 30.15in /  1020.9hPa SE 2.9mph /  4.7km/h 5.0mph /  8km/h 17% 0.00in /  0mm 1030.0 W/m2
14:56 93.6 °F /  34.2 °C 40.6 °F /  4.8 °C 30.14in /  1020.5hPa SE 4.9mph /  7.9km/h 6.0mph /  9.7km/h 16% 0.00in /  0mm 1007.0 W/m2
15:01 93.7 °F /  34.3 °C 39.2 °F /  4 °C 30.15in /  1020.9hPa NE 2.0mph /  3.2km/h 9.0mph /  14.5km/h 15% 0.00in /  0mm 998.0 W/m2
15:02 93.7 °F /  34.3 °C 39.2 °F /  4 °C 30.15in /  1020.9hPa ENE 0.9mph /  1.4km/h 7.0mph /  11.3km/h 15% 0.00in /  0mm 997.0 W/m2
15:07 94.3 °F /  34.6 °C 39.6 °F /  4.2 °C 30.14in /  1020.5hPa Calm   4.0mph /  6.4km/h 15% 0.00in /  0mm 1002.0 W/m2
15:11 94.3 °F /  34.6 °C 39.6 °F /  4.2 °C 30.14in /  1020.5hPa NNE 2.9mph /  4.7km/h 7.0mph /  11.3km/h 15% 0.00in /  0mm 979.0 W/m2
15:12 94.3 °F /  34.6 °C 39.6 °F /  4.2 °C 30.14in /  1020.5hPa NNW 0.9mph /  1.4km/h 6.0mph /  9.7km/h 15% 0.00in /  0mm 984.0 W/m2
15:17 94.5 °F /  34.7 °C 39.7 °F /  4.3 °C 30.14in /  1020.5hPa NNE 4.9mph /  7.9km/h 10.0mph /  16.1km/h 15% 0.00in /  0mm 965.0 W/m2
15:24 94.5 °F /  34.7 °C 39.7 °F /  4.3 °C 30.14in /  1020.5hPa NW 0.9mph /  1.4km/h 5.0mph /  8km/h 15% 0.00in /  0mm 923.0 W/m2
15:27 94.6 °F /  34.8 °C 41.5 °F /  5.3 °C 30.14in /  1020.5hPa SE 6.0mph /  9.7km/h 12.0mph /  19.3km/h 16% 0.00in /  0mm 912.0 W/m2
15:32 94.6 °F /  34.8 °C 38.1 °F /  3.4 °C 30.14in /  1020.5hPa NNE 8.9mph /  14.3km/h 9.0mph /  14.5km/h 14% 0.00in /  0mm 127.0 W/m2
15:38 93.7 °F /  34.3 °C 39.2 °F /  4 °C 30.13in /  1020.2hPa East 0.9mph /  1.4km/h 3.0mph /  4.8km/h 15% 0.00in /  0mm 911.0 W/m2
15:43 93.7 °F /  34.3 °C 40.8 °F /  4.9 °C 30.13in /  1020.2hPa NE 4.9mph /  7.9km/h 10.0mph /  16.1km/h 16% 0.00in /  0mm 891.0 W/m2
15:53 93.7 °F /  34.3 °C 42.3 °F /  5.7 °C 30.13in /  1020.2hPa SE 2.9mph /  4.7km/h 4.0mph /  6.4km/h 17% 0.00in /  0mm 856.0 W/m2
15:59 93.9 °F /  34.4 °C 44.1 °F /  6.7 °C 30.12in /  1019.9hPa NE 2.9mph /  4.7km/h 10.0mph /  16.1km/h 18% 0.00in /  0mm 816.0 W/m2
16:04 93.4 °F /  34.1 °C 42.1 °F /  5.6 °C 30.12in /  1019.9hPa NNE 4.0mph /  6.4km/h 9.0mph /  14.5km/h 17% 0.00in /  0mm 111.0 W/m2
16:09 92.7 °F /  33.7 °C 43.0 °F /  6.1 °C 30.12in /  1019.9hPa NE 4.0mph /  6.4km/h 7.0mph /  11.3km/h 18% 0.00in /  0mm 786.0 W/m2
16:14 92.7 °F /  33.7 °C 41.5 °F /  5.3 °C 30.12in /  1019.9hPa NE 0.9mph /  1.4km/h 4.0mph /  6.4km/h 17% 0.00in /  0mm 786.0 W/m2
16:21 93.4 °F /  34.1 °C 43.5 °F /  6.4 °C 30.12in /  1019.9hPa ESE 2.9mph /  4.7km/h 11.0mph /  17.7km/h 18% 0.00in /  0mm 809.0 W/m2
16:28 93.9 °F /  34.4 °C 44.1 °F /  6.7 °C 30.12in /  1019.9hPa NE 2.0mph /  3.2km/h 7.0mph /  11.3km/h 18% 0.00in /  0mm 197.0 W/m2
16:33 93.7 °F /  34.3 °C 43.9 °F /  6.6 °C 30.12in /  1019.9hPa NE 0.9mph /  1.4km/h 9.0mph /  14.5km/h 18% 0.00in /  0mm 828.0 W/m2
16:40 93.9 °F /  34.4 °C 42.4 °F /  5.8 °C 30.12in /  1019.9hPa NNE 4.9mph /  7.9km/h 7.0mph /  11.3km/h 17% 0.00in /  0mm 789.0 W/m2
16:41 93.7 °F /  34.3 °C 42.3 °F /  5.7 °C 30.12in /  1019.9hPa ESE 0.9mph /  1.4km/h 7.0mph /  11.3km/h 17% 0.00in /  0mm 789.0 W/m2
16:42 93.7 °F /  34.3 °C 43.9 °F /  6.6 °C 30.12in /  1019.9hPa East 2.9mph /  4.7km/h 12.0mph /  19.3km/h 18% 0.00in /  0mm 192.0 W/m2
16:47 92.5 °F /  33.6 °C 48.0 °F /  8.9 °C 30.12in /  1019.9hPa North 4.0mph /  6.4km/h 17.0mph /  27.4km/h 22% 0.00in /  0mm 656.0 W/m2
16:51 90.9 °F /  32.7 °C 48.0 °F /  8.9 °C 30.12in /  1019.9hPa ENE 4.0mph /  6.4km/h 16.0mph /  25.7km/h 23% 0.00in /  0mm 120.0 W/m2
16:52 90.3 °F /  32.4 °C 48.6 °F /  9.2 °C 30.12in /  1019.9hPa SE 4.9mph /  7.9km/h 10.0mph /  16.1km/h 24% 0.00in /  0mm 121.0 W/m2
16:57 88.0 °F /  31.1 °C 47.8 °F /  8.8 °C 30.12in /  1019.9hPa SSE 8.1mph /  13km/h 16.0mph /  25.7km/h 25% 0.00in /  0mm 120.0 W/m2
17:03 86.2 °F /  30.1 °C 48.2 °F /  9 °C 30.12in /  1019.9hPa NE 15.0mph /  24.1km/h 15.0mph /  24.1km/h 27% 0.00in /  0mm 116.0 W/m2
17:08 85.3 °F /  29.6 °C 46.6 °F /  8.1 °C 30.12in /  1019.9hPa ENE 6.9mph /  11.1km/h 21.0mph /  33.8km/h 26% 0.00in /  0mm 111.0 W/m2
17:13 84.9 °F /  29.4 °C 47.1 °F /  8.4 °C 30.12in /  1019.9hPa East 16.1mph /  25.9km/h 17.0mph /  27.4km/h 27% 0.00in /  0mm 109.0 W/m2
17:16 84.6 °F /  29.2 °C 46.9 °F /  8.3 °C 30.12in /  1019.9hPa East 6.9mph /  11.1km/h 11.0mph /  17.7km/h 27% 0.00in /  0mm 116.0 W/m2
17:18 84.4 °F /  29.1 °C 47.7 °F /  8.7 °C 30.12in /  1019.9hPa NE 13.0mph /  20.9km/h 17.0mph /  27.4km/h 28% 0.00in /  0mm 120.0 W/m2
17:20 84.4 °F /  29.1 °C 46.8 °F /  8.2 °C 29.65in /  1003.9hPa NE 4.0mph /  6.4km/h 17.0mph /  27.4km/h 27% 0.00in /  0mm 118.0 W/m2
17:26 84.0 °F /  28.9 °C 46.4 °F /  8 °C 30.12in /  1019.9hPa ESE 4.9mph /  7.9km/h 15.0mph /  24.1km/h 27% 0.00in /  0mm 109.0 W/m2
17:31 83.8 °F /  28.8 °C 46.2 °F /  7.9 °C 30.12in /  1019.9hPa NNE 4.0mph /  6.4km/h 15.0mph /  24.1km/h 27% 0.00in /  0mm 107.0 W/m2
17:33 83.7 °F /  28.7 °C 47.1 °F /  8.4 °C 30.12in /  1019.9hPa NNW 2.9mph /  4.7km/h 10.0mph /  16.1km/h 28% 0.00in /  0mm 165.0 W/m2
17:40 83.1 °F /  28.4 °C 51.8 °F /  11 °C 30.12in /  1019.9hPa ENE 10.1mph /  16.3km/h 12.0mph /  19.3km/h 34% 0.00in /  0mm 98.0 W/m2
17:45 82.6 °F /  28.1 °C 49.8 °F /  9.9 °C 30.13in /  1020.2hPa ESE 4.0mph /  6.4km/h 13.0mph /  20.9km/h 32% 0.00in /  0mm 221.0 W/m2
17:46 82.6 °F /  28.1 °C 49.8 °F /  9.9 °C 30.13in /  1020.2hPa ESE 2.9mph /  4.7km/h 8.0mph /  12.9km/h 32% 0.00in /  0mm 306.0 W/m2
17:47 82.6 °F /  28.1 °C 51.4 °F /  10.8 °C 30.13in /  1020.2hPa East 2.9mph /  4.7km/h 8.0mph /  12.9km/h 34% 0.00in /  0mm 329.0 W/m2
17:51 82.6 °F /  28.1 °C 49.8 °F /  9.9 °C 30.12in /  1019.9hPa NE 4.0mph /  6.4km/h 12.0mph /  19.3km/h 32% 0.00in /  0mm 427.0 W/m2
17:56 83.1 °F /  28.4 °C 48.6 °F /  9.2 °C 30.12in /  1019.9hPa SE 4.9mph /  7.9km/h 8.0mph /  12.9km/h 30% 0.00in /  0mm 413.0 W/m2
17:57 83.3 °F /  28.5 °C 47.7 °F /  8.7 °C 30.12in /  1019.9hPa ENE 8.1mph /  13km/h 12.0mph /  19.3km/h 29% 0.00in /  0mm 410.0 W/m2
18:03 83.8 °F /  28.8 °C 50.0 °F /  10 °C 30.12in /  1019.9hPa East 2.0mph /  3.2km/h 9.0mph /  14.5km/h 31% 0.00in /  0mm 390.0 W/m2
18:08 83.8 °F /  28.8 °C 49.1 °F /  9.5 °C 30.12in /  1019.9hPa ENE 6.9mph /  11.1km/h 10.0mph /  16.1km/h 30% 0.00in /  0mm 100.0 W/m2
18:13 83.3 °F /  28.5 °C 50.4 °F /  10.2 °C 30.13in /  1020.2hPa ESE 2.0mph /  3.2km/h 10.0mph /  16.1km/h 32% 0.00in /  0mm 334.0 W/m2
18:16 83.3 °F /  28.5 °C 51.3 °F /  10.7 °C 30.14in /  1020.5hPa NNE 0.9mph /  1.4km/h 10.0mph /  16.1km/h 33% 0.00in /  0mm 290.0 W/m2
18:17 83.3 °F /  28.5 °C 51.3 °F /  10.7 °C 30.14in /  1020.5hPa NNE 6.9mph /  11.1km/h 10.0mph /  16.1km/h 33% 0.00in /  0mm 248.0 W/m2
18:23 82.9 °F /  28.3 °C 50.9 °F /  10.5 °C 30.14in /  1020.5hPa NNW 6.0mph /  9.7km/h 7.0mph /  11.3km/h 33% 0.00in /  0mm 105.0 W/m2
18:27 82.4 °F /  28 °C 50.4 °F /  10.2 °C 29.68in /  1005hPa North 6.0mph /  9.7km/h 7.0mph /  11.3km/h 33% 0.00in /  0mm 84.0 W/m2
18:31 81.9 °F /  27.7 °C 50.7 °F /  10.4 °C 30.14in /  1020.5hPa NNW 6.0mph /  9.7km/h 9.0mph /  14.5km/h 34% 0.00in /  0mm 65.0 W/m2
18:32 81.9 °F /  27.7 °C 50.7 °F /  10.4 °C 30.14in /  1020.5hPa NW 2.9mph /  4.7km/h 9.0mph /  14.5km/h 34% 0.00in /  0mm 53.0 W/m2
18:38 81.3 °F /  27.4 °C 50.2 °F /  10.1 °C 30.15in /  1020.9hPa North 2.0mph /  3.2km/h 4.0mph /  6.4km/h 34% 0.00in /  0mm 33.0 W/m2
18:41 81.1 °F /  27.3 °C 50.2 °F /  10.1 °C 30.15in /  1020.9hPa NE 2.9mph /  4.7km/h 4.0mph /  6.4km/h 34% 0.00in /  0mm 30.0 W/m2
18:42 81.1 °F /  27.3 °C 50.2 °F /  10.1 °C 30.15in /  1020.9hPa ENE 2.0mph /  3.2km/h 4.0mph /  6.4km/h 34% 0.00in /  0mm 30.0 W/m2
18:48 81.0 °F /  27.2 °C 50.0 °F /  10 °C 30.15in /  1020.9hPa ENE 2.0mph /  3.2km/h 6.0mph /  9.7km/h 34% 0.00in /  0mm 19.0 W/m2
18:50 81.0 °F /  27.2 °C 50.0 °F /  10 °C 30.15in /  1020.9hPa Calm   4.0mph /  6.4km/h 34% 0.00in /  0mm 14.0 W/m2
18:51 80.8 °F /  27.1 °C 49.8 °F /  9.9 °C 30.15in /  1020.9hPa ENE 0.9mph /  1.4km/h 3.0mph /  4.8km/h 34% 0.00in /  0mm 14.0 W/m2
18:56 80.8 °F /  27.1 °C 50.5 °F /  10.3 °C 30.16in /  1021.2hPa East 4.0mph /  6.4km/h 5.0mph /  8km/h 35% 0.00in /  0mm 9.0 W/m2
19:02 80.8 °F /  27.1 °C 50.5 °F /  10.3 °C 30.16in /  1021.2hPa Calm   1.0mph /  1.6km/h 35% 0.00in /  0mm 7.0 W/m2
19:07 80.8 °F /  27.1 °C 49.8 °F /  9.9 °C 30.17in /  1021.6hPa Calm   1.0mph /  1.6km/h 34% 0.00in /  0mm 5.0 W/m2
19:12 80.6 °F /  27 °C 49.6 °F /  9.8 °C 30.17in /  1021.6hPa Calm   1.0mph /  1.6km/h 34% 0.00in /  0mm 5.0 W/m2
19:21 80.6 °F /  27 °C 49.6 °F /  9.8 °C 30.18in /  1021.9hPa SSW 0.9mph /  1.4km/h 2.0mph /  3.2km/h 34% 0.00in /  0mm 0.0 W/m2
19:28 78.4 °F /  25.8 °C 52.2 °F /  11.2 °C 30.19in /  1022.2hPa SW 10.1mph /  16.3km/h 12.0mph /  19.3km/h 40% 0.00in /  0mm 0.0 W/m2
19:30 78.1 °F /  25.6 °C 52.5 °F /  11.4 °C 29.72in /  1006.3hPa SW 4.0mph /  6.4km/h 7.0mph /  11.3km/h 41% 0.00in /  0mm 0.0 W/m2
19:31 79.2 °F /  26.2 °C 52.2 °F /  11.2 °C 30.19in /  1022.2hPa SW 6.9mph /  11.1km/h 11.0mph /  17.7km/h 39% 0.00in /  0mm 0.0 W/m2
19:38 77.2 °F /  25.1 °C 52.9 °F /  11.6 °C 30.19in /  1022.2hPa SSW 6.9mph /  11.1km/h 8.0mph /  12.9km/h 43% 0.00in /  0mm 0.0 W/m2
19:44 76.5 °F /  24.7 °C 52.3 °F /  11.3 °C 30.19in /  1022.2hPa SSW 4.0mph /  6.4km/h 7.0mph /  11.3km/h 43% 0.00in /  0mm 0.0 W/m2
19:47 76.5 °F /  24.7 °C 52.3 °F /  11.3 °C 30.20in /  1022.6hPa West 0.9mph /  1.4km/h 6.0mph /  9.7km/h 43% 0.00in /  0mm 0.0 W/m2
19:53 76.1 °F /  24.5 °C 52.0 °F /  11.1 °C 30.20in /  1022.6hPa SW 0.9mph /  1.4km/h 5.0mph /  8km/h 43% 0.00in /  0mm 0.0 W/m2
19:58 75.7 °F /  24.3 °C 51.1 °F /  10.6 °C 30.20in /  1022.6hPa West 0.9mph /  1.4km/h 7.0mph /  11.3km/h 42% 0.00in /  0mm 0.0 W/m2
20:05 75.6 °F /  24.2 °C 50.9 °F /  10.5 °C 30.20in /  1022.6hPa WSW 2.0mph /  3.2km/h 6.0mph /  9.7km/h 42% 0.00in /  0mm 0.0 W/m2
20:11 75.6 °F /  24.2 °C 50.9 °F /  10.5 °C 30.21in /  1022.9hPa WSW 0.9mph /  1.4km/h 4.0mph /  6.4km/h 42% 0.00in /  0mm 0.0 W/m2
20:17 75.2 °F /  24 °C 51.1 °F /  10.6 °C 30.21in /  1022.9hPa Calm     43% 0.00in /  0mm 0.0 W/m2
20:22 75.0 °F /  23.9 °C 51.1 °F /  10.6 °C 30.21in /  1022.9hPa Calm   1.0mph /  1.6km/h 43% 0.00in /  0mm 0.0 W/m2
20:27 75.0 °F /  23.9 °C 51.1 °F /  10.6 °C 30.22in /  1023.2hPa SE 2.0mph /  3.2km/h 4.0mph /  6.4km/h 43% 0.00in /  0mm 0.0 W/m2
20:32 75.0 °F /  23.9 °C 52.2 °F /  11.2 °C 30.22in /  1023.2hPa ESE 0.9mph /  1.4km/h 6.0mph /  9.7km/h 45% 0.00in /  0mm 0.0 W/m2
20:33 75.0 °F /  23.9 °C 52.2 °F /  11.2 °C 30.23in /  1023.6hPa Calm   5.0mph /  8km/h 45% 0.00in /  0mm 0.0 W/m2
20:37 75.0 °F /  23.9 °C 51.6 °F /  10.9 °C 30.22in /  1023.2hPa ESE 0.9mph /  1.4km/h 3.0mph /  4.8km/h 44% 0.00in /  0mm 0.0 W/m2
20:38 75.0 °F /  23.9 °C 51.1 °F /  10.6 °C 30.22in /  1023.2hPa SE 2.0mph /  3.2km/h 3.0mph /  4.8km/h 43% 0.00in /  0mm 0.0 W/m2
20:40 75.0 °F /  23.9 °C 51.1 °F /  10.6 °C 30.22in /  1023.2hPa SSW 2.9mph /  4.7km/h 6.0mph /  9.7km/h 43% 0.00in /  0mm 0.0 W/m2
20:48 75.0 °F /  23.9 °C 50.4 °F /  10.2 °C 30.22in /  1023.2hPa SSW 4.9mph /  7.9km/h 7.0mph /  11.3km/h 42% 0.00in /  0mm 0.0 W/m2
20:54 75.2 °F /  24 °C 50.5 °F /  10.3 °C 30.21in /  1022.9hPa West 0.9mph /  1.4km/h 4.0mph /  6.4km/h 42% 0.00in /  0mm 0.0 W/m2
20:57 75.2 °F /  24 °C 50.5 °F /  10.3 °C 30.22in /  1023.2hPa Calm     42% 0.00in /  0mm 0.0 W/m2
21:03 75.4 °F /  24.1 °C 50.0 °F /  10 °C 30.22in /  1023.2hPa Calm     41% 0.00in /  0mm 0.0 W/m2
21:09 75.4 °F /  24.1 °C 50.7 °F /  10.4 °C 30.22in /  1023.2hPa Calm     42% 0.00in /  0mm 0.0 W/m2
21:15 75.4 °F /  24.1 °C 50.7 °F /  10.4 °C 30.22in /  1023.2hPa Calm     42% 0.00in /  0mm 0.0 W/m2
21:20 75.6 °F /  24.2 °C 50.9 °F /  10.5 °C 30.22in /  1023.2hPa West 0.9mph /  1.4km/h 3.0mph /  4.8km/h 42% 0.00in /  0mm 0.0 W/m2
21:25 75.6 °F /  24.2 °C 50.9 °F /  10.5 °C 30.22in /  1023.2hPa WNW 0.9mph /  1.4km/h 1.0mph /  1.6km/h 42% 0.00in /  0mm 0.0 W/m2
21:28 75.6 °F /  24.2 °C 50.9 °F /  10.5 °C 30.22in /  1023.2hPa WNW 0.9mph /  1.4km/h 6.0mph /  9.7km/h 42% 0.00in /  0mm 0.0 W/m2
21:32 75.6 °F /  24.2 °C 51.4 °F /  10.8 °C 30.23in /  1023.6hPa SSW 2.0mph /  3.2km/h 2.0mph /  3.2km/h 43% 0.00in /  0mm 0.0 W/m2
21:37 75.6 °F /  24.2 °C 50.9 °F /  10.5 °C 30.23in /  1023.6hPa Calm   2.0mph /  3.2km/h 42% 0.00in /  0mm 0.0 W/m2
21:38 75.6 °F /  24.2 °C 50.9 °F /  10.5 °C 30.23in /  1023.6hPa Calm   2.0mph /  3.2km/h 42% 0.00in /  0mm 0.0 W/m2
21:42 75.6 °F /  24.2 °C 48.9 °F /  9.4 °C 30.24in /  1023.9hPa SSE 4.0mph /  6.4km/h 7.0mph /  11.3km/h 39% 0.00in /  0mm 0.0 W/m2
21:43 75.6 °F /  24.2 °C 48.9 °F /  9.4 °C 30.23in /  1023.6hPa Calm   7.0mph /  11.3km/h 39% 0.00in /  0mm 0.0 W/m2
21:47 75.6 °F /  24.2 °C 48.9 °F /  9.4 °C 30.23in /  1023.6hPa Calm   2.0mph /  3.2km/h 39% 0.00in /  0mm 0.0 W/m2
21:56 75.6 °F /  24.2 °C 49.5 °F /  9.7 °C 30.24in /  1023.9hPa SSW 0.9mph /  1.4km/h 6.0mph /  9.7km/h 40% 0.00in /  0mm 0.0 W/m2
22:01 75.2 °F /  24 °C 49.3 °F /  9.6 °C 30.23in /  1023.6hPa Calm   4.0mph /  6.4km/h 40% 0.00in /  0mm 0.0 W/m2
22:03 75.0 °F /  23.9 °C 49.1 °F /  9.5 °C 30.23in /  1023.6hPa SW 2.0mph /  3.2km/h 6.0mph /  9.7km/h 40% 0.00in /  0mm 0.0 W/m2
22:06 74.8 °F /  23.8 °C 48.9 °F /  9.4 °C 30.23in /  1023.6hPa SSW 4.9mph /  7.9km/h 5.0mph /  8km/h 40% 0.00in /  0mm 0.0 W/m2
22:08 74.8 °F /  23.8 °C 49.6 °F /  9.8 °C 30.23in /  1023.6hPa SW 4.0mph /  6.4km/h 4.0mph /  6.4km/h 41% 0.00in /  0mm 0.0 W/m2
22:12 74.7 °F /  23.7 °C 49.5 °F /  9.7 °C 30.23in /  1023.6hPa ESE 2.0mph /  3.2km/h 5.0mph /  8km/h 41% 0.00in /  0mm 0.0 W/m2
22:17 74.7 °F /  23.7 °C 49.5 °F /  9.7 °C 30.23in /  1023.6hPa Calm   5.0mph /  8km/h 41% 0.00in /  0mm 0.0 W/m2
22:24 74.7 °F /  23.7 °C 49.5 °F /  9.7 °C 30.23in /  1023.6hPa SSW 0.9mph /  1.4km/h 3.0mph /  4.8km/h 41% 0.00in /  0mm 0.0 W/m2
22:29 74.5 °F /  23.6 °C 49.3 °F /  9.6 °C 30.23in /  1023.6hPa Calm   2.0mph /  3.2km/h 41% 0.00in /  0mm 0.0 W/m2
22:34 74.5 °F /  23.6 °C 49.3 °F /  9.6 °C 30.23in /  1023.6hPa SSW 0.9mph /  1.4km/h 1.0mph /  1.6km/h 41% 0.00in /  0mm 0.0 W/m2
22:40 74.3 °F /  23.5 °C 49.6 °F /  9.8 °C 30.23in /  1023.6hPa SE 2.0mph /  3.2km/h 3.0mph /  4.8km/h 42% 0.00in /  0mm 0.0 W/m2
22:47 74.1 °F /  23.4 °C 49.6 °F /  9.8 °C 30.23in /  1023.6hPa Calm   1.0mph /  1.6km/h 42% 0.00in /  0mm 0.0 W/m2
22:51 73.9 °F /  23.3 °C 49.5 °F /  9.7 °C 30.23in /  1023.6hPa Calm     42% 0.00in /  0mm 0.0 W/m2
22:57 73.9 °F /  23.3 °C 49.5 °F /  9.7 °C 30.23in /  1023.6hPa Calm     42% 0.00in /  0mm 0.0 W/m2
23:00 73.8 °F /  23.2 °C 49.3 °F /  9.6 °C 30.23in /  1023.6hPa Calm   1.0mph /  1.6km/h 42% 0.00in /  0mm 0.0 W/m2
23:05 73.8 °F /  23.2 °C 49.3 °F /  9.6 °C 30.23in /  1023.6hPa Calm     42% 0.00in /  0mm 0.0 W/m2
23:09 73.6 °F /  23.1 °C 49.1 °F /  9.5 °C 29.76in /  1007.7hPa Calm     42% 0.00in /  0mm 0.0 W/m2
23:10 73.6 °F /  23.1 °C 49.1 °F /  9.5 °C 29.76in /  1007.7hPa Calm     42% 0.00in /  0mm 0.0 W/m2
23:15 73.2 °F /  22.9 °C 49.5 °F /  9.7 °C 30.23in /  1023.6hPa Calm     43% 0.00in /  0mm 0.0 W/m2
23:20 73.0 °F /  22.8 °C 49.3 °F /  9.6 °C 30.23in /  1023.6hPa Calm   1.0mph /  1.6km/h 43% 0.00in /  0mm 0.0 W/m2
23:25 72.7 °F /  22.6 °C 49.5 °F /  9.7 °C 30.23in /  1023.6hPa Calm   2.0mph /  3.2km/h 44% 0.00in /  0mm 0.0 W/m2
23:30 72.3 °F /  22.4 °C 49.1 °F /  9.5 °C 30.23in /  1023.6hPa Calm   1.0mph /  1.6km/h 44% 0.00in /  0mm 0.0 W/m2
23:34 72.1 °F /  22.3 °C 49.1 °F /  9.5 °C 30.23in /  1023.6hPa Calm   1.0mph /  1.6km/h 44% 0.00in /  0mm 0.0 W/m2
23:35 72.1 °F /  22.3 °C 49.1 °F /  9.5 °C 30.23in /  1023.6hPa Calm   1.0mph /  1.6km/h 44% 0.00in /  0mm 0.0 W/m2
23:40 72.0 °F /  22.2 °C 48.9 °F /  9.4 °C 30.23in /  1023.6hPa Calm   1.0mph /  1.6km/h 44% 0.00in /  0mm 0.0 W/m2
23:43 71.8 °F /  22.1 °C 49.3 °F /  9.6 °C 30.23in /  1023.6hPa Calm   1.0mph /  1.6km/h 45% 0.00in /  0mm 0.0 W/m2
23:44 71.8 °F /  22.1 °C 49.3 °F /  9.6 °C 29.76in /  1007.7hPa Calm   1.0mph /  1.6km/h 45% 0.00in /  0mm 0.0 W/m2
23:46 71.6 °F /  22 °C 49.1 °F /  9.5 °C 29.75in /  1007.3hPa East 2.0mph /  3.2km/h 2.0mph /  3.2km/h 45% 0.00in /  0mm 0.0 W/m2
23:47 71.4 °F /  21.9 °C 48.9 °F /  9.4 °C 30.22in /  1023.2hPa Calm   2.0mph /  3.2km/h 45% 0.00in /  0mm 0.0 W/m2
23:50 71.6 °F /  22 °C 49.1 °F /  9.5 °C 30.23in /  1023.6hPa Calm   1.0mph /  1.6km/h 45% 0.00in /  0mm 0.0 W/m2
23:56 71.2 °F /  21.8 °C 50.0 °F /  10 °C 30.22in /  1023.2hPa Calm   1.0mph /  1.6km/h 47% 0.00in /  0mm 0.0 W/m2
23:57 71.1 °F /  21.7 °C 49.8 °F /  9.9 °C 30.22in /  1023.2hPa Calm   1.0mph /  1.6km/h 47% 0.00in /  0mm 0.0 W/m2
Olympia, Windhoek, Namibia
Compliments of Weather Underground - 3.5 mb